Time,TemperatureF,DewpointF,PressureIn,WindDirection,WindDirectionDegrees,WindSpeedMPH,WindSpeedGustMPH,Humidity,HourlyPrecipIn,Conditions,Clouds,dailyrainin,SolarRadiationWatts/m^2,SoftwareType,DateUTC
2013-01-24 00:01:00,-2.0,-7.0,-100.00,North,1,3.0,7.0,77,0.00,,,0.00,0.000000,,2013-01-24 06:01:00,
2013-01-24 00:33:00,-2.0,-7.0,-100.00,North,1,3.0,7.0,77,0.00,,,0.00,0.000000,,2013-01-24 06:33:00,
2013-01-24 00:42:00,-2.0,-7.0,-100.00,North,1,3.0,7.0,77,0.00,,,0.00,0.000000,,2013-01-24 06:42:00,
2013-01-24 00:52:00,-2.0,-7.0,-100.00,North,1,3.0,7.0,77,0.00,,,0.00,0.000000,,2013-01-24 06:52:00,
2013-01-24 01:01:00,-7.0,-14.0,-100.00,WNW,293,1.0,7.0,72,0.00,,,0.00,0.000000,,2013-01-24 07:01:00,
2013-01-24 01:23:00,-7.0,-14.0,-100.00,WNW,293,1.0,7.0,72,0.00,,,0.00,0.000000,,2013-01-24 07:23:00,
2013-01-24 01:33:00,-7.0,-14.0,-100.00,WNW,293,1.0,7.0,72,0.00,,,0.00,0.000000,,2013-01-24 07:33:00,
2013-01-24 01:43:00,-7.0,-14.0,-100.00,WNW,293,1.0,7.0,72,0.00,,,0.00,0.000000,,2013-01-24 07:43:00,
2013-01-24 01:53:00,-7.0,-14.0,-100.00,WNW,293,1.0,7.0,72,0.00,,,0.00,0.000000,,2013-01-24 07:53:00,
2013-01-24 02:01:00,-8.0,-14.0,-100.00,ENE,64,1.0,3.0,75,0.00,,,0.00,0.000000,,2013-01-24 08:01:00,
2013-01-24 02:33:00,-8.0,-14.0,-100.00,ENE,64,1.0,3.0,75,0.00,,,0.00,0.000000,,2013-01-24 08:33:00,
2013-01-24 02:43:00,-8.0,-14.0,-100.00,ENE,64,1.0,3.0,75,0.00,,,0.00,0.000000,,2013-01-24 08:43:00,
2013-01-24 02:53:00,-8.0,-14.0,-100.00,ENE,64,1.0,3.0,75,0.00,,,0.00,0.000000,,2013-01-24 08:53:00,
2013-01-24 03:01:00,-14.0,-21.0,-100.00,WSW,247,1.0,2.0,68,0.00,,,0.00,0.000000,,2013-01-24 09:01:00,
2013-01-24 03:33:00,-14.0,-21.0,-100.00,WSW,247,1.0,2.0,68,0.00,,,0.00,0.000000,,2013-01-24 09:33:00,
2013-01-24 03:43:00,-14.0,-21.0,-100.00,WSW,247,1.0,2.0,68,0.00,,,0.00,0.000000,,2013-01-24 09:43:00,
2013-01-24 03:53:00,-14.0,-21.0,-100.00,WSW,247,1.0,2.0,68,0.00,,,0.00,0.000000,,2013-01-24 09:53:00,
2013-01-24 04:01:00,-18.0,-26.0,-100.00,West,280,0.0,2.0,67,0.00,,,0.00,0.000000,,2013-01-24 10:01:00,
2013-01-24 04:34:00,-18.0,-26.0,-100.00,West,280,0.0,2.0,67,0.00,,,0.00,0.000000,,2013-01-24 10:34:00,
2013-01-24 04:43:00,-18.0,-26.0,-100.00,West,280,0.0,2.0,67,0.00,,,0.00,0.000000,,2013-01-24 10:43:00,
2013-01-24 04:53:00,-18.0,-26.0,-100.00,West,280,0.0,2.0,67,0.00,,,0.00,0.000000,,2013-01-24 10:53:00,
2013-01-24 05:01:00,-14.0,-21.0,-100.00,WSW,249,0.0,2.0,69,0.00,,,0.00,0.000000,,2013-01-24 11:01:00,
2013-01-24 05:23:00,-14.0,-21.0,-100.00,WSW,249,0.0,2.0,69,0.00,,,0.00,0.000000,,2013-01-24 11:23:00,
2013-01-24 05:33:00,-14.0,-21.0,-100.00,WSW,249,0.0,2.0,69,0.00,,,0.00,0.000000,,2013-01-24 11:33:00,
2013-01-24 05:43:00,-14.0,-21.0,-100.00,WSW,249,0.0,2.0,69,0.00,,,0.00,0.000000,,2013-01-24 11:43:00,
2013-01-24 05:53:00,-14.0,-21.0,-100.00,WSW,249,0.0,2.0,69,0.00,,,0.00,0.000000,,2013-01-24 11:53:00,
2013-01-24 06:01:00,-11.0,-18.0,-100.00,NW,322,0.0,3.0,71,0.00,,,0.00,0.000000,,2013-01-24 12:01:00,
2013-01-24 06:33:00,-11.0,-18.0,-100.00,NW,322,0.0,3.0,71,0.00,,,0.00,0.000000,,2013-01-24 12:33:00,
2013-01-24 06:43:00,-11.0,-18.0,-100.00,NW,322,0.0,3.0,71,0.00,,,0.00,0.000000,,2013-01-24 12:43:00,
2013-01-24 06:53:00,-11.0,-18.0,-100.00,NW,322,0.0,3.0,71,0.00,,,0.00,0.000000,,2013-01-24 12:53:00,
2013-01-24 07:01:00,-8.0,-14.0,-100.00,WNW,290,0.0,2.0,73,0.00,,,0.00,0.000000,,2013-01-24 13:01:00,
2013-01-24 07:33:00,-8.0,-14.0,-100.00,WNW,290,0.0,2.0,73,0.00,,,0.00,0.000000,,2013-01-24 13:33:00,
2013-01-24 07:43:00,-8.0,-14.0,-100.00,WNW,290,0.0,2.0,73,0.00,,,0.00,0.000000,,2013-01-24 13:43:00,
2013-01-24 07:53:00,-8.0,-14.0,-100.00,WNW,290,0.0,2.0,73,0.00,,,0.00,0.000000,,2013-01-24 13:53:00,
2013-01-24 08:01:00,-7.0,-13.0,-100.00,SW,235,1.0,3.0,73,0.00,,,0.00,6.000000,,2013-01-24 14:01:00,
2013-01-24 08:23:00,-7.0,-13.0,-100.00,SW,235,1.0,3.0,73,0.00,,,0.00,6.000000,,2013-01-24 14:23:00,
2013-01-24 08:33:00,-7.0,-13.0,-100.00,SW,235,1.0,3.0,73,0.00,,,0.00,6.000000,,2013-01-24 14:33:00,
2013-01-24 08:43:00,-7.0,-13.0,-100.00,SW,235,1.0,3.0,73,0.00,,,0.00,6.000000,,2013-01-24 14:43:00,
2013-01-24 08:54:00,-7.0,-13.0,-100.00,SW,235,1.0,3.0,73,0.00,,,0.00,6.000000,,2013-01-24 14:54:00,
2013-01-24 09:01:00,-2.0,-9.0,-100.00,ESE,116,0.0,2.0,73,0.00,,,0.00,52.000000,,2013-01-24 15:01:00,
2013-01-24 09:33:00,-2.0,-9.0,-100.00,ESE,116,0.0,2.0,73,0.00,,,0.00,52.000000,,2013-01-24 15:33:00,
2013-01-24 09:43:00,-2.0,-9.0,-100.00,ESE,116,0.0,2.0,73,0.00,,,0.00,52.000000,,2013-01-24 15:43:00,
2013-01-24 09:53:00,-2.0,-9.0,-100.00,ESE,116,0.0,2.0,73,0.00,,,0.00,52.000000,,2013-01-24 15:53:00,
2013-01-24 10:01:00,9.0,2.0,-100.00,SSW,198,0.0,2.0,71,0.00,,,0.00,147.000000,,2013-01-24 16:01:00,
2013-01-24 10:33:00,9.0,2.0,-100.00,SSW,198,0.0,2.0,71,0.00,,,0.00,147.000000,,2013-01-24 16:33:00,
2013-01-24 10:43:00,9.0,2.0,-100.00,SSW,198,0.0,2.0,71,0.00,,,0.00,147.000000,,2013-01-24 16:43:00,
2013-01-24 11:01:00,7.0,0.0,-100.00,SSE,151,1.0,6.0,71,0.00,,,0.00,231.000000,,2013-01-24 17:01:00,
2013-01-24 11:33:00,7.0,0.0,-100.00,SSE,151,1.0,6.0,71,0.00,,,0.00,231.000000,,2013-01-24 17:33:00,
2013-01-24 11:43:00,7.0,0.0,-100.00,SSE,151,1.0,6.0,71,0.00,,,0.00,231.000000,,2013-01-24 17:43:00,
2013-01-24 11:52:00,7.0,0.0,-100.00,SSE,151,1.0,6.0,71,0.00,,,0.00,231.000000,,2013-01-24 17:52:00,
2013-01-24 12:01:00,6.0,-2.0,-100.00,South,186,4.0,6.0,69,0.00,,,0.00,220.000000,,2013-01-24 18:01:00,
2013-01-24 12:33:00,6.0,-2.0,-100.00,South,186,4.0,6.0,69,0.00,,,0.00,220.000000,,2013-01-24 18:33:00,
2013-01-24 12:43:00,6.0,-2.0,-100.00,South,186,4.0,6.0,69,0.00,,,0.00,220.000000,,2013-01-24 18:43:00,
2013-01-24 12:53:00,6.0,-2.0,-100.00,South,186,4.0,6.0,69,0.00,,,0.00,220.000000,,2013-01-24 18:53:00,
2013-01-24 13:01:00,7.0,-1.0,-100.00,WSW,258,4.0,7.0,68,0.00,,,0.00,272.000000,,2013-01-24 19:01:00,
2013-01-24 13:22:00,7.0,-1.0,-100.00,WSW,258,4.0,7.0,68,0.00,,,0.00,272.000000,,2013-01-24 19:22:00,
2013-01-24 13:33:00,7.0,-1.0,-100.00,WSW,258,4.0,7.0,68,0.00,,,0.00,272.000000,,2013-01-24 19:33:00,
2013-01-24 13:42:00,7.0,-1.0,-100.00,WSW,258,4.0,7.0,68,0.00,,,0.00,272.000000,,2013-01-24 19:42:00,
2013-01-24 13:53:00,7.0,-1.0,-100.00,WSW,258,4.0,7.0,68,0.00,,,0.00,272.000000,,2013-01-24 19:53:00,
2013-01-24 14:01:00,6.0,-2.0,-100.00,SW,225,4.0,8.0,69,0.00,,,0.00,243.000000,,2013-01-24 20:01:00,
2013-01-24 14:33:00,6.0,-2.0,-100.00,SW,225,4.0,8.0,69,0.00,,,0.00,243.000000,,2013-01-24 20:33:00,
2013-01-24 14:42:00,6.0,-2.0,-100.00,SW,225,4.0,8.0,69,0.00,,,0.00,243.000000,,2013-01-24 20:42:00,
2013-01-24 14:52:00,6.0,-2.0,-100.00,SW,225,4.0,8.0,69,0.00,,,0.00,243.000000,,2013-01-24 20:52:00,
2013-01-24 15:01:00,5.0,-3.0,-100.00,WSW,248,4.0,7.0,70,0.00,,,0.00,138.000000,,2013-01-24 21:01:00,
2013-01-24 15:23:00,5.0,-3.0,-100.00,WSW,248,4.0,7.0,70,0.00,,,0.00,138.000000,,2013-01-24 21:23:00,
2013-01-24 15:33:00,5.0,-3.0,-100.00,WSW,248,4.0,7.0,70,0.00,,,0.00,138.000000,,2013-01-24 21:33:00,
2013-01-24 15:43:00,5.0,-3.0,-100.00,WSW,248,4.0,7.0,70,0.00,,,0.00,138.000000,,2013-01-24 21:43:00,
2013-01-24 15:53:00,5.0,-3.0,-100.00,WSW,248,4.0,7.0,70,0.00,,,0.00,138.000000,,2013-01-24 21:53:00,
2013-01-24 16:01:00,4.0,-3.0,-100.00,SSW,210,4.0,8.0,73,0.00,,,0.00,54.000000,,2013-01-24 22:01:00,
2013-01-24 16:33:00,4.0,-3.0,-100.00,SSW,210,4.0,8.0,73,0.00,,,0.00,54.000000,,2013-01-24 22:33:00,
2013-01-24 16:42:00,4.0,-3.0,-100.00,SSW,210,4.0,8.0,73,0.00,,,0.00,54.000000,,2013-01-24 22:42:00,
2013-01-24 16:53:00,4.0,-3.0,-100.00,SSW,210,4.0,8.0,73,0.00,,,0.00,54.000000,,2013-01-24 22:53:00,
2013-01-24 17:01:00,3.0,-4.0,-100.00,South,183,3.0,7.0,73,0.00,,,0.00,9.000000,,2013-01-24 23:01:00,
2013-01-24 17:32:00,3.0,-4.0,-100.00,South,183,3.0,7.0,73,0.00,,,0.00,9.000000,,2013-01-24 23:32:00,
2013-01-24 17:42:00,3.0,-4.0,-100.00,South,183,3.0,7.0,73,0.00,,,0.00,9.000000,,2013-01-24 23:42:00,
2013-01-24 17:52:00,3.0,-4.0,-100.00,South,183,3.0,7.0,73,0.00,,,0.00,9.000000,,2013-01-24 23:52:00,
2013-01-24 18:01:00,3.0,-3.0,-100.00,South,191,2.0,6.0,74,0.00,,,0.00,0.000000,,2013-01-25 00:01:00,
2013-01-24 18:22:00,3.0,-3.0,-100.00,South,191,2.0,6.0,74,0.00,,,0.00,0.000000,,2013-01-25 00:22:00,
2013-01-24 18:32:00,3.0,-3.0,-100.00,South,191,2.0,6.0,74,0.00,,,0.00,0.000000,,2013-01-25 00:32:00,
2013-01-24 18:42:00,3.0,-3.0,-100.00,South,191,2.0,6.0,74,0.00,,,0.00,0.000000,,2013-01-25 00:42:00,
2013-01-24 18:52:00,3.0,-3.0,-100.00,South,191,2.0,6.0,74,0.00,,,0.00,0.000000,,2013-01-25 00:52:00,
2013-01-24 19:01:00,3.0,-4.0,-100.00,SSE,163,3.0,6.0,73,0.00,,,0.00,0.000000,,2013-01-25 01:01:00,
2013-01-24 19:32:00,3.0,-4.0,-100.00,SSE,163,3.0,6.0,73,0.00,,,0.00,0.000000,,2013-01-25 01:32:00,
2013-01-24 19:42:00,3.0,-4.0,-100.00,SSE,163,3.0,6.0,73,0.00,,,0.00,0.000000,,2013-01-25 01:42:00,
2013-01-24 19:52:00,3.0,-4.0,-100.00,SSE,163,3.0,6.0,73,0.00,,,0.00,0.000000,,2013-01-25 01:52:00,
2013-01-24 20:01:00,4.0,-3.0,-100.00,SSW,204,3.0,6.0,72,0.00,,,0.00,0.000000,,2013-01-25 02:01:00,
2013-01-24 20:22:00,4.0,-3.0,-100.00,SSW,204,3.0,6.0,72,0.00,,,0.00,0.000000,,2013-01-25 02:22:00,
2013-01-24 20:33:00,4.0,-3.0,-100.00,SSW,204,3.0,6.0,72,0.00,,,0.00,0.000000,,2013-01-25 02:33:00,
2013-01-24 20:43:00,4.0,-3.0,-100.00,SSW,204,3.0,6.0,72,0.00,,,0.00,0.000000,,2013-01-25 02:43:00,
2013-01-24 20:53:00,4.0,-3.0,-100.00,SSW,204,3.0,6.0,72,0.00,,,0.00,0.000000,,2013-01-25 02:53:00,
2013-01-24 21:01:00,4.0,-2.0,-100.00,SSW,198,5.0,9.0,77,0.00,,,0.00,0.000000,,2013-01-25 03:01:00,
2013-01-24 21:33:00,4.0,-2.0,-100.00,SSW,198,5.0,9.0,77,0.00,,,0.00,0.000000,,2013-01-25 03:33:00,
2013-01-24 21:42:00,4.0,-2.0,-100.00,SSW,198,5.0,9.0,77,0.00,,,0.00,0.000000,,2013-01-25 03:42:00,
2013-01-24 21:52:00,4.0,-2.0,-100.00,SSW,198,5.0,9.0,77,0.00,,,0.00,0.000000,,2013-01-25 03:52:00,
2013-01-24 22:01:00,4.0,-1.0,-100.00,SSW,203,4.0,10.0,79,0.00,,,0.00,0.000000,,2013-01-25 04:01:00,
2013-01-24 22:32:00,4.0,-1.0,-100.00,SSW,203,4.0,10.0,79,0.00,,,0.00,0.000000,,2013-01-25 04:32:00,
2013-01-24 22:42:00,4.0,-1.0,-100.00,SSW,203,4.0,10.0,79,0.00,,,0.00,0.000000,,2013-01-25 04:42:00,
2013-01-24 22:52:00,4.0,-1.0,-100.00,SSW,203,4.0,10.0,79,0.00,,,0.00,0.000000,,2013-01-25 04:52:00,
2013-01-24 23:01:00,5.0,0.0,-100.00,SSW,204,5.0,11.0,79,0.00,,,0.00,0.000000,,2013-01-25 05:01:00,
2013-01-24 23:32:00,5.0,0.0,-100.00,SSW,204,5.0,11.0,79,0.00,,,0.00,0.000000,,2013-01-25 05:32:00,
2013-01-24 23:43:00,5.0,0.0,-100.00,SSW,204,5.0,11.0,79,0.00,,,0.00,0.000000,,2013-01-25 05:43:00,
2013-01-24 23:52:00,5.0,0.0,-100.00,SSW,204,5.0,11.0,79,0.00,,,0.00,0.000000,,2013-01-25 05:52:00,